Time;durP1;ratioP1;P1;durP2;ratioP2;P2;SDS_P1;SDS_P2;PMS_P1;PMS_P2;Temp;Humidity;BMP_temperature;BMP_pressure;BME280_temperature;BME280_humidity;BME280_pressure;Samples;Min_cycle;Max_cycle;Signal;HPM_P1;HPM_P2
2022/04/26 03:36:51;;;;;;;16.15;9.20;;;;;;;7.27;90.25;100577.52;5249032;55;1137188;-69
2022/04/26 03:41:57;;;;;;;16.33;8.57;;;;;;;7.27;90.36;100579.67;5285722;55;1139250;-70
2022/04/26 03:47:03;;;;;;;13.60;8.40;;;;;;;7.29;90.17;100587.00;5270586;55;1139025;-70
2022/04/26 03:52:09;;;;;;;19.33;10.47;;;;;;;7.35;90.48;100587.91;5251371;55;1138904;-69
2022/04/26 03:57:15;;;;;;;16.53;9.43;;;;;;;7.42;90.60;100604.17;5267372;55;1141102;-68
2022/04/26 04:02:22;;;;;;;9.80;6.30;;;;;;;7.38;90.25;100614.51;5219641;56;1137189;-70
2022/04/26 04:07:27;;;;;;;26.37;10.47;;;;;;;7.32;90.09;100613.13;5219588;56;1137246;-70
2022/04/26 04:12:33;;;;;;;26.33;11.80;;;;;;;7.28;90.03;100626.09;5246133;55;1141055;-68
2022/04/26 04:17:40;;;;;;;13.07;6.70;;;;;;;7.26;90.10;100625.34;5259823;55;1141063;-69
2022/04/26 04:22:48;;;;;;;17.60;8.00;;;;;;;7.22;90.22;100631.72;5219644;55;1139275;-69
2022/04/26 04:27:54;;;;;;;21.93;11.37;;;;;;;7.18;90.24;100643.86;5219765;55;1136889;-69
2022/04/26 04:32:59;;;;;;;21.20;9.37;;;;;;;7.16;90.31;100642.64;5219627;55;1141058;-68
2022/04/26 04:38:05;;;;;;;14.17;8.50;;;;;;;7.12;90.31;100642.91;5219544;55;1139105;-70
2022/04/26 04:43:12;;;;;;;18.33;9.47;;;;;;;7.05;90.66;100650.31;5219667;55;1137208;-70
2022/04/26 04:48:19;;;;;;;18.17;6.33;;;;;;;7.02;90.72;100655.31;5218908;55;1137465;-70
2022/04/26 04:53:25;;;;;;;14.00;7.63;;;;;;;7.08;90.64;100663.75;5273484;55;1136901;-70
2022/04/26 04:58:32;;;;;;;8.57;6.23;;;;;;;7.09;90.67;100666.29;5307042;55;1137007;-69
2022/04/26 05:03:38;;;;;;;23.83;6.23;;;;;;;7.17;90.88;100673.27;5307210;55;1132857;-72
2022/04/26 05:08:47;;;;;;;15.77;6.90;;;;;;;7.19;90.71;100668.72;5307015;55;1136893;-69
2022/04/26 05:13:53;;;;;;;16.40;9.23;;;;;;;7.24;90.50;100678.98;5307022;55;1136844;-69
2022/04/26 05:18:59;;;;;;;12.67;7.23;;;;;;;7.20;90.22;100681.41;5307122;55;1135019;-70
2022/04/26 05:29:29;;;;;;;12.18;6.97;;;;;;;7.32;90.45;100687.27;5307213;55;1137151;-69
2022/04/26 05:34:35;;;;;;;11.10;5.30;;;;;;;7.48;90.51;100686.69;5306943;55;1137120;-68
2022/04/26 05:39:40;;;;;;;11.35;5.00;;;;;;;7.61;89.78;100692.03;5306828;55;1134827;-70
2022/04/26 05:44:46;;;;;;;15.77;8.37;;;;;;;7.79;89.45;100693.98;5306932;55;1136921;-69
2022/04/26 05:49:52;;;;;;;11.00;6.17;;;;;;;7.96;87.70;100698.53;5308005;55;1137433;-71
2022/04/26 05:55:00;;;;;;;9.47;5.40;;;;;;;8.12;88.00;100703.66;5225297;55;1136914;-72
2022/04/26 06:00:08;;;;;;;14.70;7.40;;;;;;;8.47;87.51;100696.12;5219419;56;1130898;-75
2022/04/26 06:05:16;;;;;;;11.80;6.13;;;;;;;8.63;85.12;100698.13;5219521;56;1138875;-73
2022/04/26 06:10:22;;;;;;;25.43;8.63;;;;;;;8.89;85.16;100700.32;5234184;55;1138937;-73
2022/04/26 06:15:28;;;;;;;11.37;5.67;;;;;;;9.11;82.48;100700.56;5236560;55;1139175;-73
2022/04/26 06:20:34;;;;;;;9.73;4.87;;;;;;;9.12;81.65;100705.37;5246483;55;1138955;-72
2022/04/26 06:25:40;;;;;;;10.97;4.87;;;;;;;9.32;82.45;100700.86;5235413;55;1134776;-71
2022/04/26 06:30:45;;;;;;;9.23;4.30;;;;;;;9.54;82.21;100704.17;5253551;55;1136920;-72
2022/04/26 06:35:51;;;;;;;5.93;4.37;;;;;;;9.80;82.69;100697.87;5227751;56;1137013;-71
2022/04/26 06:40:57;;;;;;;7.57;4.17;;;;;;;10.10;78.80;100706.72;5272354;55;1137028;-70
2022/04/26 06:46:03;;;;;;;6.07;4.43;;;;;;;10.10;77.55;100704.55;5261226;55;1139001;-68
2022/04/26 06:51:09;;;;;;;6.77;4.73;;;;;;;10.08;77.20;100707.30;5236338;55;1139443;-69
2022/04/26 06:56:15;;;;;;;13.37;6.20;;;;;;;10.37;78.41;100704.39;5235170;55;1139636;-70
2022/04/26 07:01:20;;;;;;;6.77;4.73;;;;;;;10.60;77.00;100707.47;5249618;55;1141094;-70
2022/04/26 07:06:26;;;;;;;7.23;5.10;;;;;;;10.63;75.13;100701.97;5258173;55;1139003;-71
2022/04/26 07:11:32;;;;;;;7.80;4.00;;;;;;;10.70;75.49;100707.14;5240850;55;1139124;-72
2022/04/26 07:16:38;;;;;;;3.65;2.87;;;;;;;10.99;74.64;100706.29;5234947;56;1139012;-75
2022/04/26 07:21:49;;;;;;;6.33;3.60;;;;;;;11.24;70.72;100711.85;5261611;55;1138973;-72
2022/04/26 07:26:54;;;;;;;10.63;2.87;;;;;;;11.09;70.77;100710.39;5306314;55;1138915;-72
2022/04/26 07:31:59;;;;;;;6.63;4.40;;;;;;;11.39;72.76;100718.61;5241896;55;1141128;-75
2022/04/26 07:37:05;;;;;;;5.27;3.80;;;;;;;11.86;73.71;100720.20;5183713;56;1138971;-75
2022/04/26 07:42:10;;;;;;;4.53;3.83;;;;;;;11.98;70.77;100723.19;5218482;56;1139001;-74
2022/04/26 07:47:16;;;;;;;3.73;3.07;;;;;;;11.92;69.97;100724.99;5218592;56;1139045;-74
2022/04/26 07:52:23;;;;;;;5.43;2.63;;;;;;;11.99;67.69;100725.36;5218501;56;1139221;-73
2022/04/26 07:57:29;;;;;;;3.43;3.10;;;;;;;11.98;66.09;100727.16;5218432;56;1139264;-73
2022/04/26 08:02:36;;;;;;;5.42;3.17;;;;;;;11.95;67.18;100734.52;5218468;55;1139036;-74
2022/04/26 08:07:44;;;;;;;9.53;3.80;;;;;;;12.10;67.37;100729.30;5218469;56;1139003;-71
2022/04/26 08:12:49;;;;;;;8.83;2.93;;;;;;;12.35;67.61;100733.97;5218379;56;1139212;-71
2022/04/26 08:17:55;;;;;;;6.73;3.30;;;;;;;12.50;65.49;100739.34;5248342;55;1139049;-73
2022/04/26 08:23:02;;;;;;;3.63;3.30;;;;;;;12.52;66.72;100739.58;5306786;55;1139039;-73
2022/04/26 08:28:07;;;;;;;2.83;2.63;;;;;;;12.73;67.24;100742.73;5306773;55;1139023;-70
2022/04/26 08:33:13;;;;;;;3.33;3.03;;;;;;;13.01;67.74;100744.77;5262890;55;1139312;-74
2022/04/26 08:38:19;;;;;;;5.23;3.43;;;;;;;13.12;63.61;100750.04;5263890;55;1139282;-71
2022/04/26 08:43:33;;;;;;;5.13;3.57;;;;;;;13.20;66.47;100756.05;5306601;55;1138942;-72
2022/04/26 08:53:55;;;;;;;3.67;3.37;;;;;;;13.64;64.59;100761.53;5308297;55;1138931;-71
2022/04/26 08:59:02;;;;;;;3.57;3.27;;;;;;;13.75;65.09;100760.62;5308244;55;1139227;-73
2022/04/26 09:04:08;;;;;;;6.53;3.27;;;;;;;13.89;64.26;100765.58;5308158;55;1138924;-71
2022/04/26 09:09:21;;;;;;;6.17;3.50;;;;;;;13.87;63.51;100764.87;5311600;55;1137069;-72
2022/04/26 09:14:34;;;;;;;6.92;3.35;;;;;;;14.02;63.65;100760.86;5219598;56;1137074;-73
2022/04/26 09:19:56;;;;;;;6.53;3.02;;;;;;;14.19;60.72;100763.36;5219656;56;1136935;-75
2022/04/26 09:25:07;;;;;;;4.23;3.33;;;;;;;14.33;62.08;100759.83;5253118;55;1137000;-71
2022/04/26 09:30:16;;;;;;;3.30;3.00;;;;;;;14.55;60.55;100760.08;5214805;56;1136917;-74
2022/04/26 09:35:32;;;;;;;6.13;3.37;;;;;;;14.53;60.88;100757.20;5215602;55;1136912;-73
2022/04/26 09:40:35;;;;;;;5.65;3.40;;;;;;;14.60;61.52;100761.00;5218930;56;1137466;-72
2022/04/26 09:45:51;;;;;;;3.07;2.50;;;;;;;14.76;59.22;100762.14;5219458;56;1137382;-71
2022/04/26 09:50:57;;;;;;;9.27;3.80;;;;;;;14.89;62.22;100764.52;5210904;56;1135090;-74
2022/04/26 09:56:06;;;;;;;3.90;3.50;;;;;;;15.26;62.00;100761.96;5164100;56;1139094;-75
2022/04/26 10:01:14;;;;;;;2.85;2.58;;;;;;;15.52;60.69;100754.17;5163937;56;1138980;-74
2022/04/26 10:06:22;;;;;;;5.10;2.43;;;;;;;15.63;59.56;100762.51;5164146;56;1139165;-71
2022/04/26 10:11:29;;;;;;;3.07;2.37;;;;;;;15.58;58.47;100758.97;5197975;55;1139056;-76
2022/04/26 10:16:35;;;;;;;3.07;2.30;;;;;;;15.81;58.32;100754.94;5242440;55;1138876;-72
2022/04/26 10:21:46;;;;;;;2.40;2.30;;;;;;;16.08;58.44;100754.09;5294827;55;1138932;-78
2022/04/26 10:26:54;;;;;;;3.07;2.70;;;;;;;16.24;56.61;100753.45;5268644;55;1138968;-72
2022/04/26 10:32:01;;;;;;;5.60;2.97;;;;;;;16.39;56.76;100745.27;5219104;56;1138927;-76
2022/04/26 10:37:15;;;;;;;3.00;2.70;;;;;;;16.30;55.64;100744.02;5219222;56;1138991;-76
2022/04/26 10:42:27;;;;;;;2.53;2.43;;;;;;;16.34;54.99;100738.73;5219323;56;1138987;-73
2022/04/26 10:47:33;;;;;;;18.70;3.40;;;;;;;16.63;55.88;100738.05;5219186;56;1139166;-77
2022/04/26 10:52:41;;;;;;;6.93;3.47;;;;;;;16.74;54.23;100740.98;5219490;56;1141131;-75
2022/04/26 10:57:50;;;;;;;7.60;3.20;;;;;;;16.56;54.65;100742.77;5219970;56;1139214;-77
2022/04/26 11:03:02;;;;;;;7.03;3.33;;;;;;;16.46;56.45;100741.02;5219951;56;1138970;-71
2022/04/26 11:08:09;;;;;;;3.20;2.07;;;;;;;16.38;55.14;100734.74;5219798;56;1138956;-72
2022/04/26 11:13:21;;;;;;;14.93;2.63;;;;;;;16.32;54.21;100748.22;5237995;55;1138972;-74
2022/04/26 11:18:30;;;;;;;7.03;2.33;;;;;;;16.03;54.20;100751.06;5242707;55;1140926;-71
2022/04/26 11:29:03;;;;;;;4.20;2.50;;;;;;;16.00;54.35;100753.17;5226596;55;1138962;-74
2022/04/26 11:34:09;;;;;;;4.03;2.60;;;;;;;16.00;54.72;100766.02;5213188;56;1138998;-74
2022/04/26 11:39:15;;;;;;;3.03;2.23;;;;;;;16.04;53.68;100751.90;5219653;56;1138975;-77
2022/04/26 11:44:21;;;;;;;2.10;1.60;;;;;;;15.87;54.13;100755.34;5219719;56;1139019;-74
2022/04/26 11:49:40;;;;;;;3.90;1.20;;;;;;;15.98;54.10;100757.32;5219609;56;1138976;-77
2022/04/26 11:54:46;;;;;;;1.53;1.43;;;;;;;16.34;51.17;100761.42;5218725;56;1136931;-72
2022/04/26 11:59:51;;;;;;;3.97;2.30;;;;;;;16.60;50.51;100760.17;5219664;56;1137132;-75
2022/04/26 12:04:57;;;;;;;7.90;2.33;;;;;;;16.39;50.00;100766.63;5219693;56;1137035;-72
2022/04/26 12:10:03;;;;;;;2.93;2.03;;;;;;;16.04;51.24;100770.05;5232322;55;1136910;-74
2022/04/26 12:15:09;;;;;;;2.58;1.67;;;;;;;15.98;52.83;100765.81;5308141;55;1136886;-71
2022/04/26 12:20:18;;;;;;;2.00;1.90;;;;;;;15.51;50.45;100768.98;5308383;55;1137129;-72
2022/04/26 12:25:23;;;;;;;5.00;1.80;;;;;;;15.51;50.45;100768.98;5263312;55;1136849;-76
2022/04/26 12:30:31;;;;;;;4.67;1.93;;;;;;;15.34;51.25;100771.89;5219704;56;1136902;-77
2022/04/26 12:35:37;;;;;;;3.13;1.77;;;;;;;15.35;50.41;100771.75;5219699;56;1136954;-71
2022/04/26 12:40:43;;;;;;;5.73;1.80;;;;;;;15.33;50.13;100759.05;5219185;56;1136924;-73
2022/04/26 12:46:02;;;;;;;1.77;1.67;;;;;;;15.33;50.13;100759.05;5217987;56;1136933;-76
2022/04/26 12:51:29;;;;;;;2.80;1.80;;;;;;;15.29;49.66;100758.14;5217657;56;1137207;-76
2022/04/26 12:56:30;;;;;;;5.20;1.90;;;;;;;15.38;49.07;100754.14;5220741;55;1134761;-74
2022/04/26 13:01:36;;;;;;;4.43;1.83;;;;;;;15.48;50.94;100745.62;5225944;56;1134264;-71
2022/04/26 13:06:45;;;;;;;2.30;1.97;;;;;;;15.86;52.12;100751.84;5248140;56;1138884;-72
2022/04/26 13:11:52;;;;;;;1.87;1.70;;;;;;;16.08;50.75;100743.92;5232732;55;1139202;-76
2022/04/26 13:16:57;;;;;;;7.23;1.90;;;;;;;16.03;48.27;100743.05;5222046;56;1138933;-73
2022/04/26 13:22:03;;;;;;;2.00;1.90;;;;;;;16.04;49.38;100745.23;5254540;55;1139017;-76
2022/04/26 13:27:10;;;;;;;2.00;1.80;;;;;;;16.28;50.14;100733.98;5234579;55;1139107;-75
2022/04/26 13:32:17;;;;;;;4.70;2.60;;;;;;;16.44;48.58;100736.33;5221907;56;1139176;-72
2022/04/26 13:37:24;;;;;;;1.80;1.70;;;;;;;16.48;50.57;100736.38;5221754;56;1138987;-75
2022/04/26 13:42:31;;;;;;;1.97;1.87;;;;;;;16.58;50.17;100734.95;5221572;56;1138991;-75
2022/04/26 13:47:38;;;;;;;2.47;2.27;;;;;;;16.58;47.47;100736.30;5221692;56;1139064;-75
2022/04/26 13:52:44;;;;;;;2.00;1.90;;;;;;;16.44;48.92;100734.98;5221497;56;1139039;-76
2022/04/26 13:57:50;;;;;;;5.83;1.80;;;;;;;16.60;50.40;100738.31;5218179;56;1139033;-75
2022/04/26 14:02:55;;;;;;;2.33;2.13;;;;;;;16.76;50.27;100738.50;5218217;56;1139001;-75
2022/04/26 14:08:02;;;;;;;4.03;2.33;;;;;;;16.85;51.35;100739.39;5218108;56;1139031;-76
2022/04/26 14:13:09;;;;;;;2.40;2.20;;;;;;;16.86;49.71;100739.74;5243787;55;1138972;-76
2022/04/26 14:23:37;;;;;;;7.40;2.30;;;;;;;16.73;49.65;100744.64;5275479;55;1139064;-74
2022/04/26 14:28:44;;;;;;;61.43;5.93;;;;;;;16.51;47.70;100744.55;5218462;55;1139324;-75
2022/04/26 14:33:49;;;;;;;6.03;4.07;;;;;;;16.47;49.25;100744.53;5217964;56;1141036;-76
2022/04/26 14:38:55;;;;;;;8.30;2.37;;;;;;;16.60;49.49;100744.99;5217994;56;1139113;-73
2022/04/26 14:44:01;;;;;;;3.53;1.73;;;;;;;16.79;49.03;100742.70;5218123;56;1139054;-72
2022/04/26 14:49:07;;;;;;;2.87;1.93;;;;;;;16.76;48.14;100743.00;5217921;56;1138985;-72
2022/04/26 14:54:14;;;;;;;10.43;7.67;;;;;;;16.59;48.43;100739.31;5218635;56;1139084;-75
2022/04/26 14:59:22;;;;;;;6.73;2.30;;;;;;;16.60;48.18;100731.64;5221338;56;1141099;-75
2022/04/26 15:04:28;;;;;;;1.50;1.40;;;;;;;16.57;47.71;100734.61;5221436;56;1138968;-75
2022/04/26 15:09:52;;;;;;;3.80;2.10;;;;;;;16.48;47.40;100737.71;5221361;56;1139117;-77
2022/04/26 15:20:24;;;;;;;1.80;1.72;;;;;;;16.42;47.87;100739.64;5221644;56;1139085;-75
2022/04/26 15:25:32;;;;;;;5.73;1.53;;;;;;;16.49;48.69;100747.40;5268833;55;1136910;-76
2022/04/26 15:30:48;;;;;;;1.87;1.77;;;;;;;16.53;48.49;100743.41;5310270;55;1136907;-76
2022/04/26 15:35:51;;;;;;;12.47;2.30;;;;;;;16.58;48.42;100744.80;5309238;55;1136872;-75
2022/04/26 15:41:01;;;;;;;7.30;4.47;;;;;;;16.46;47.40;100734.34;5310856;55;1139045;-74
2022/04/26 15:46:10;;;;;;;9.50;2.97;;;;;;;16.51;48.77;100745.39;5310779;55;1136890;-71
2022/04/26 15:51:17;;;;;;;1.60;1.50;;;;;;;16.59;48.87;100742.47;5311298;55;1136882;-72
2022/04/26 15:56:23;;;;;;;8.07;2.67;;;;;;;16.50;48.45;100744.20;5309371;55;1136959;-74
2022/04/26 16:01:28;;;;;;;7.80;3.37;;;;;;;16.43;48.08;100749.33;5307421;55;1137143;-73
2022/04/26 16:06:37;;;;;;;4.50;2.40;;;;;;;16.37;48.76;100749.92;5307338;55;1136892;-74
2022/04/26 16:22:28;;;;;;;8.33;2.70;;;;;;;16.05;47.04;100753.55;5307818;55;1138917;-74
2022/04/26 16:27:34;;;;;;;2.47;1.93;;;;;;;15.95;47.96;100758.10;5223354;55;1138995;-73
2022/04/26 16:32:40;;;;;;;1.75;1.65;;;;;;;16.00;48.13;100757.17;5218717;56;1138953;-74
2022/04/26 16:37:46;;;;;;;2.40;2.20;;;;;;;15.99;47.83;100755.00;5218541;56;1139100;-71
2022/04/26 16:42:53;;;;;;;17.37;4.63;;;;;;;15.93;48.21;100759.58;5218472;56;1139124;-73
2022/04/26 16:47:59;;;;;;;13.93;7.13;;;;;;;15.90;48.75;100758.53;5218423;56;1141032;-72
2022/04/26 16:53:05;;;;;;;18.40;7.10;;;;;;;15.89;48.56;100760.05;5218571;56;1141249;-73
2022/04/26 16:58:12;;;;;;;13.90;6.93;;;;;;;15.85;49.04;100770.16;5219055;56;1141090;-73
2022/04/26 17:03:18;;;;;;;9.00;5.77;;;;;;;15.85;49.11;100769.31;5219520;56;1141102;-71
2022/04/26 17:08:24;;;;;;;14.90;10.70;;;;;;;15.73;49.51;100776.18;5219649;56;1139026;-73
2022/04/26 17:13:30;;;;;;;6.90;5.03;;;;;;;15.67;49.52;100781.23;5219348;56;1143112;-76
2022/04/26 17:18:36;;;;;;;10.47;4.20;;;;;;;15.65;50.16;100780.55;5219574;56;1139287;-73
2022/04/26 17:23:41;;;;;;;27.20;10.60;;;;;;;15.60;50.72;100789.45;5234673;55;1140955;-74
2022/04/26 17:28:47;;;;;;;24.37;15.03;;;;;;;15.60;51.18;100794.30;5308043;55;1143177;-77
2022/04/26 17:33:55;;;;;;;25.73;14.27;;;;;;;15.52;51.26;100791.98;5308118;55;1143183;-72
2022/04/26 17:39:01;;;;;;;21.03;13.13;;;;;;;15.53;51.97;100800.33;5308014;55;1143100;-74
2022/04/26 17:44:07;;;;;;;31.88;11.88;;;;;;;15.56;52.45;100808.92;5295291;55;1143447;-76
2022/04/26 17:49:12;;;;;;;34.03;12.30;;;;;;;15.57;52.68;100811.10;5308052;55;1143152;-73
2022/04/26 17:59:42;;;;;;;40.00;10.08;;;;;;;15.56;53.46;100825.41;5308047;55;1143464;-75
2022/04/26 18:04:48;;;;;;;73.67;12.67;;;;;;;15.54;53.88;100824.68;5307742;55;1143166;-76
2022/04/26 18:09:53;;;;;;;83.70;14.83;;;;;;;15.47;53.75;100833.73;5300677;55;1143276;-76
2022/04/26 18:14:59;;;;;;;58.33;14.83;;;;;;;15.44;54.26;100840.67;5219145;56;1143177;-74
2022/04/26 18:20:06;;;;;;;75.53;27.33;;;;;;;15.41;54.61;100850.31;5219248;56;1143142;-72
2022/04/26 18:25:11;;;;;;;94.20;38.07;;;;;;;15.32;54.60;100852.47;5259981;55;1143461;-73
2022/04/26 18:30:17;;;;;;;88.70;38.93;;;;;;;15.14;54.88;100860.32;5307798;55;1143077;-72
2022/04/26 18:35:23;;;;;;;108.83;36.47;;;;;;;15.10;55.49;100869.11;5307891;55;1143182;-73
2022/04/26 18:40:28;;;;;;;149.80;47.60;;;;;;;15.09;56.09;100878.08;5307867;55;1145222;-72
2022/04/26 18:45:34;;;;;;;173.87;46.37;;;;;;;15.02;56.18;100880.94;5304994;55;1145251;-78
2022/04/26 18:50:41;;;;;;;106.27;29.70;;;;;;;14.97;56.70;100882.35;5264289;55;1145434;-72
2022/04/26 18:55:49;;;;;;;98.67;30.07;;;;;;;14.96;56.78;100901.48;5242260;55;1145218;-75
2022/04/26 19:00:56;;;;;;;100.50;24.37;;;;;;;14.90;56.99;100899.36;5270822;55;1143131;-76
2022/04/26 19:06:03;;;;;;;84.93;33.90;;;;;;;14.87;57.03;100904.95;5306663;55;1145271;-72
2022/04/26 19:16:33;;;;;;;95.73;36.43;;;;;;;14.80;57.30;100920.30;5218742;56;1141144;-76
2022/04/26 19:21:39;;;;;;;134.53;50.53;;;;;;;14.71;57.32;100932.59;5244150;55;1141032;-76
2022/04/26 19:26:45;;;;;;;109.20;43.80;;;;;;;14.38;57.58;100923.04;5238111;55;1143193;-75
2022/04/26 19:31:54;;;;;;;91.65;37.33;;;;;;;14.16;58.16;100932.55;5257100;55;1143450;-72
2022/04/26 19:36:58;;;;;;;75.27;34.43;;;;;;;13.95;58.42;100938.71;5250778;55;1141569;-71
2022/04/26 19:42:04;;;;;;;98.47;41.30;;;;;;;13.77;59.05;100946.91;5218565;56;1141103;-73
2022/04/26 19:47:10;;;;;;;81.67;45.70;;;;;;;13.73;59.81;100946.83;5226995;55;1141312;-73
2022/04/26 19:52:15;;;;;;;96.60;44.27;;;;;;;13.80;60.23;100947.14;5252644;55;1141065;-72
2022/04/26 19:57:22;;;;;;;117.23;50.33;;;;;;;13.86;60.49;100943.98;5251553;55;1141294;-72
2022/04/26 20:02:28;;;;;;;49.37;22.80;;;;;;;13.88;60.65;100942.03;5241160;55;1143459;-72
2022/04/26 20:07:34;;;;;;;79.10;35.57;;;;;;;13.93;60.54;100946.45;5219787;55;1141312;-72
2022/04/26 20:12:40;;;;;;;58.60;29.10;;;;;;;13.90;61.01;100943.56;5219635;55;1141189;-74
2022/04/26 20:17:46;;;;;;;55.37;25.80;;;;;;;13.77;61.12;100938.94;5230542;55;1140972;-73
2022/04/26 20:22:52;;;;;;;58.13;21.77;;;;;;;13.56;61.62;100948.23;5251491;55;1141029;-74
2022/04/26 20:33:21;;;;;;;106.58;47.33;;;;;;;13.51;62.76;100958.87;5233298;55;1143100;-72
2022/04/26 20:38:27;;;;;;;115.83;48.63;;;;;;;13.42;62.79;100960.98;5245299;55;1145221;-71
2022/04/26 20:43:32;;;;;;;104.20;45.30;;;;;;;13.37;63.07;100967.99;5231094;55;1145037;-74
2022/04/26 20:48:38;;;;;;;91.13;43.53;;;;;;;13.35;63.44;100972.58;5212555;56;1145492;-74
2022/04/26 20:53:44;;;;;;;77.67;36.30;;;;;;;13.30;63.84;100968.97;5133794;57;1143176;-73
2022/04/26 20:58:49;;;;;;;46.37;22.60;;;;;;;13.21;63.96;100972.39;5133984;55;1143356;-73
2022/04/26 21:03:55;;;;;;;36.47;18.30;;;;;;;12.88;64.65;100977.23;5133698;55;1143186;-71
2022/04/26 21:09:01;;;;;;;43.63;21.07;;;;;;;12.61;65.56;100981.61;5144187;56;1143401;-75
2022/04/26 21:14:06;;;;;;;54.40;22.50;;;;;;;12.60;66.36;100984.38;5184428;56;1143381;-69
2022/04/26 21:19:12;;;;;;;44.03;20.30;;;;;;;12.68;66.87;100985.45;5157470;56;1143229;-76
2022/04/26 21:24:18;;;;;;;45.37;19.17;;;;;;;12.75;67.08;100981.84;5199962;56;1143441;-71
2022/04/26 21:29:24;;;;;;;45.63;19.17;;;;;;;12.69;67.06;100992.92;5185973;56;1143108;-75
2022/04/26 21:34:32;;;;;;;45.53;19.67;;;;;;;12.62;67.42;100998.38;5190994;56;1143159;-75
2022/04/26 21:39:39;;;;;;;50.93;19.13;;;;;;;12.52;67.58;100997.41;5154893;56;1143182;-77
2022/04/26 21:44:45;;;;;;;48.40;19.83;;;;;;;12.39;68.01;100994.00;5140960;56;1143141;-74
2022/04/26 21:55:14;;;;;;;36.30;18.47;;;;;;;12.37;68.73;101009.22;5130617;57;1143190;-72
2022/04/26 22:00:28;;;;;;;50.87;20.67;;;;;;;12.40;69.46;101009.80;5133194;57;1143296;-74
2022/04/26 22:05:33;;;;;;;41.27;21.10;;;;;;;12.46;69.71;101014.64;5132387;57;1143132;-74
2022/04/26 22:10:41;;;;;;;72.83;26.80;;;;;;;12.48;69.71;101019.35;5132466;57;1143100;-75
2022/04/26 22:15:47;;;;;;;78.40;29.63;;;;;;;12.49;69.86;101018.88;5147157;56;1143159;-72
2022/04/26 22:20:53;;;;;;;62.03;30.20;;;;;;;12.47;69.93;101033.58;5164775;56;1143212;-74
2022/04/26 22:25:58;;;;;;;65.37;28.50;;;;;;;12.41;69.92;101038.50;5219157;55;1143423;-73
2022/04/26 22:31:05;;;;;;;83.97;35.67;;;;;;;12.30;69.73;101034.03;5251515;55;1143176;-74
2022/04/26 22:36:11;;;;;;;82.33;37.30;;;;;;;12.19;69.92;101037.51;5251577;55;1143129;-72
2022/04/26 22:41:17;;;;;;;75.13;38.00;;;;;;;12.13;69.87;101030.48;5273154;55;1143439;-74
2022/04/26 22:46:23;;;;;;;77.17;40.97;;;;;;;12.07;69.78;101031.78;5251614;55;1142633;-74
2022/04/26 22:51:29;;;;;;;84.13;41.27;;;;;;;11.96;69.41;101037.06;5233047;56;1143350;-70
2022/04/26 22:56:35;;;;;;;85.10;42.30;;;;;;;11.82;69.32;101037.25;5235635;56;1143180;-75
2022/04/26 23:01:41;;;;;;;68.80;36.80;;;;;;;11.55;69.12;101038.30;5230076;56;1143180;-75
2022/04/26 23:06:47;;;;;;;92.33;44.73;;;;;;;11.33;69.32;101055.86;5218594;56;1143289;-72
2022/04/26 23:11:54;;;;;;;101.27;48.23;;;;;;;11.12;69.79;101054.28;5218589;56;1143148;-75
2022/04/26 23:17:02;;;;;;;102.65;45.75;;;;;;;11.06;70.40;101062.66;5218388;56;1145263;-77
2022/04/26 23:22:07;;;;;;;307.00;132.77;;;;;;;10.98;70.78;101067.18;5218616;56;1143401;-75
2022/04/26 23:27:13;;;;;;;266.97;103.47;;;;;;;10.78;70.66;101072.53;5218468;56;1145397;-74
2022/04/26 23:32:19;;;;;;;106.13;48.83;;;;;;;10.62;71.37;101072.38;5218423;56;1145205;-76
2022/04/26 23:37:24;;;;;;;112.37;48.57;;;;;;;10.67;72.29;101068.95;5218568;56;1143185;-71
2022/04/26 23:42:30;;;;;;;106.97;46.83;;;;;;;10.73;72.68;101073.80;5218534;56;1143179;-71
2022/04/26 23:47:36;;;;;;;87.83;40.40;;;;;;;10.81;72.67;101071.00;5218556;56;1143171;-74
2022/04/26 23:52:59;;;;;;;85.73;39.70;;;;;;;10.92;72.60;101069.77;5218608;56;1141279;-74
2022/04/26 23:58:05;;;;;;;79.57;37.70;;;;;;;10.97;72.75;101069.94;5218473;56;1141377;-72
